sensor_id;sensor_type;location;lat;lon;timestamp;pressure;altitude;pressure_sealevel;temperature;humidity
64683;BME280;51107;47.652;19.016;2023-02-01T00:01:24;99893.31;;;3.20;86.49
64683;BME280;51107;47.652;19.016;2023-02-01T00:03:53;99898.56;;;3.18;86.87
64683;BME280;51107;47.652;19.016;2023-02-01T00:06:21;99889.50;;;3.26;86.18
64683;BME280;51107;47.652;19.016;2023-02-01T00:08:53;99893.63;;;3.28;86.00
64683;BME280;51107;47.652;19.016;2023-02-01T00:11:22;99886.00;;;3.39;85.23
64683;BME280;51107;47.652;19.016;2023-02-01T00:13:51;99883.22;;;3.30;85.47
64683;BME280;51107;47.652;19.016;2023-02-01T00:16:22;99886.84;;;3.53;84.23
64683;BME280;51107;47.652;19.016;2023-02-01T00:18:59;99882.91;;;3.34;85.69
64683;BME280;51107;47.652;19.016;2023-02-01T00:21:29;99877.56;;;3.50;84.66
64683;BME280;51107;47.652;19.016;2023-02-01T00:23:58;99880.25;;;3.62;83.31
64683;BME280;51107;47.652;19.016;2023-02-01T00:26:37;99864.59;;;3.39;84.72
64683;BME280;51107;47.652;19.016;2023-02-01T00:29:13;99867.25;;;3.63;83.33
64683;BME280;51107;47.652;19.016;2023-02-01T00:31:43;99871.28;;;3.54;84.25
64683;BME280;51107;47.652;19.016;2023-02-01T00:34:13;99874.16;;;3.50;84.01
64683;BME280;51107;47.652;19.016;2023-02-01T00:36:43;99861.81;;;3.68;82.46
64683;BME280;51107;47.652;19.016;2023-02-01T00:39:11;99853.03;;;3.70;81.92
64683;BME280;51107;47.652;19.016;2023-02-01T00:41:40;99871.47;;;3.77;81.71
64683;BME280;51107;47.652;19.016;2023-02-01T00:44:08;99868.41;;;3.72;82.07
64683;BME280;51107;47.652;19.016;2023-02-01T00:46:37;99859.84;;;3.71;82.21
64683;BME280;51107;47.652;19.016;2023-02-01T00:49:05;99862.72;;;3.80;81.70
64683;BME280;51107;47.652;19.016;2023-02-01T00:51:35;99870.06;;;3.60;82.92
64683;BME280;51107;47.652;19.016;2023-02-01T00:54:04;99863.84;;;3.76;81.75
64683;BME280;51107;47.652;19.016;2023-02-01T00:56:32;99868.41;;;3.59;82.58
64683;BME280;51107;47.652;19.016;2023-02-01T00:59:01;99860.06;;;3.68;82.25
64683;BME280;51107;47.652;19.016;2023-02-01T01:01:29;99856.53;;;3.56;83.36
64683;BME280;51107;47.652;19.016;2023-02-01T01:03:59;99852.66;;;3.64;82.01
64683;BME280;51107;47.652;19.016;2023-02-01T01:06:30;99837.78;;;3.80;81.44
64683;BME280;51107;47.652;19.016;2023-02-01T01:09:01;99848.69;;;3.84;80.75
64683;BME280;51107;47.652;19.016;2023-02-01T01:11:33;99835.53;;;3.63;82.44
64683;BME280;51107;47.652;19.016;2023-02-01T01:14:03;99851.88;;;3.74;81.42
64683;BME280;51107;47.652;19.016;2023-02-01T01:16:32;99848.09;;;3.67;81.63
64683;BME280;51107;47.652;19.016;2023-02-01T01:19:01;99833.47;;;3.55;82.88
64683;BME280;51107;47.652;19.016;2023-02-01T01:21:30;99835.53;;;3.50;82.76
64683;BME280;51107;47.652;19.016;2023-02-01T01:23:58;99841.28;;;3.66;82.10
64683;BME280;51107;47.652;19.016;2023-02-01T01:26:28;99845.44;;;3.56;81.97
64683;BME280;51107;47.652;19.016;2023-02-01T01:28:58;99827.81;;;3.63;81.10
64683;BME280;51107;47.652;19.016;2023-02-01T01:31:27;99821.72;;;3.64;81.07
64683;BME280;51107;47.652;19.016;2023-02-01T01:33:57;99834.78;;;3.61;81.97
64683;BME280;51107;47.652;19.016;2023-02-01T01:36:27;99818.31;;;3.37;82.98
64683;BME280;51107;47.652;19.016;2023-02-01T01:38:56;99813.69;;;3.43;82.60
64683;BME280;51107;47.652;19.016;2023-02-01T01:41:29;99819.25;;;3.49;82.54
64683;BME280;51107;47.652;19.016;2023-02-01T01:47:12;99820.06;;;3.50;82.36
64683;BME280;51107;47.652;19.016;2023-02-01T01:49:43;99814.28;;;3.59;81.52
64683;BME280;51107;47.652;19.016;2023-02-01T01:52:12;99804.00;;;3.46;82.85
64683;BME280;51107;47.652;19.016;2023-02-01T01:54:46;99799.69;;;3.47;82.08
64683;BME280;51107;47.652;19.016;2023-02-01T01:57:32;99800.41;;;3.49;82.54
64683;BME280;51107;47.652;19.016;2023-02-01T02:00:08;99800.53;;;3.47;82.74
64683;BME280;51107;47.652;19.016;2023-02-01T02:02:47;99794.22;;;3.51;81.97
64683;BME280;51107;47.652;19.016;2023-02-01T02:05:16;99797.22;;;3.32;83.50
64683;BME280;51107;47.652;19.016;2023-02-01T02:07:48;99787.31;;;3.26;83.65
64683;BME280;51107;47.652;19.016;2023-02-01T02:10:17;99786.84;;;3.21;83.95
64683;BME280;51107;47.652;19.016;2023-02-01T02:12:47;99788.56;;;3.46;82.96
64683;BME280;51107;47.652;19.016;2023-02-01T02:15:16;99795.25;;;3.49;82.66
64683;BME280;51107;47.652;19.016;2023-02-01T02:18:59;99801.53;;;3.32;83.50
64683;BME280;51107;47.652;19.016;2023-02-01T02:21:23;99790.41;;;3.31;83.55
64683;BME280;51107;47.652;19.016;2023-02-01T02:38:10;99772.28;;;3.33;83.84
64683;BME280;51107;47.652;19.016;2023-02-01T02:41:07;99779.69;;;3.37;83.74
64683;BME280;51107;47.652;19.016;2023-02-01T02:43:45;99775.06;;;3.43;83.76
64683;BME280;51107;47.652;19.016;2023-02-01T02:46:39;99769.28;;;3.52;83.00
64683;BME280;51107;47.652;19.016;2023-02-01T02:49:34;99781.88;;;3.44;83.43
64683;BME280;51107;47.652;19.016;2023-02-01T02:52:16;99764.47;;;3.34;83.98
64683;BME280;51107;47.652;19.016;2023-02-01T02:55:08;99758.88;;;3.53;82.73
64683;BME280;51107;47.652;19.016;2023-02-01T02:57:40;99759.69;;;3.54;82.96
64683;BME280;51107;47.652;19.016;2023-02-01T03:00:31;99760.81;;;3.50;82.66
64683;BME280;51107;47.652;19.016;2023-02-01T03:03:19;99763.53;;;3.35;83.74
64683;BME280;51107;47.652;19.016;2023-02-01T03:06:13;99757.56;;;3.48;83.50
64683;BME280;51107;47.652;19.016;2023-02-01T03:08:44;99772.19;;;3.34;84.03
64683;BME280;51107;47.652;19.016;2023-02-01T03:11:14;99778.56;;;3.29;84.01
64683;BME280;51107;47.652;19.016;2023-02-01T03:13:51;99783.53;;;3.19;84.29
64683;BME280;51107;47.652;19.016;2023-02-01T03:16:40;99788.06;;;3.28;84.63
64683;BME280;51107;47.652;19.016;2023-02-01T03:22:01;99790.94;;;3.36;83.86
64683;BME280;51107;47.652;19.016;2023-02-01T03:24:38;99796.09;;;3.36;83.82
64683;BME280;51107;47.652;19.016;2023-02-01T03:27:30;99794.03;;;3.29;83.88
64683;BME280;51107;47.652;19.016;2023-02-01T03:32:38;99778.25;;;3.33;83.63
64683;BME280;51107;47.652;19.016;2023-02-01T03:40:42;99792.69;;;3.23;84.40
64683;BME280;51107;47.652;19.016;2023-02-01T03:43:15;99789.72;;;3.29;83.45
64683;BME280;51107;47.652;19.016;2023-02-01T03:45:50;99796.09;;;3.36;83.16
64683;BME280;51107;47.652;19.016;2023-02-01T03:48:22;99806.88;;;3.42;82.91
64683;BME280;51107;47.652;19.016;2023-02-01T03:50:55;99800.28;;;3.37;83.05
64683;BME280;51107;47.652;19.016;2023-02-01T03:53:25;99796.91;;;3.24;83.58
64683;BME280;51107;47.652;19.016;2023-02-01T03:55:55;99807.44;;;3.21;84.00
64683;BME280;51107;47.652;19.016;2023-02-01T03:58:25;99802.28;;;3.34;83.40
64683;BME280;51107;47.652;19.016;2023-02-01T04:00:58;99805.66;;;3.34;83.22
64683;BME280;51107;47.652;19.016;2023-02-01T04:03:27;99807.09;;;3.38;83.15
64683;BME280;51107;47.652;19.016;2023-02-01T04:05:57;99787.84;;;3.31;83.31
64683;BME280;51107;47.652;19.016;2023-02-01T04:08:25;99784.03;;;3.24;83.88
64683;BME280;51107;47.652;19.016;2023-02-01T04:10:54;99786.41;;;3.27;83.57
64683;BME280;51107;47.652;19.016;2023-02-01T04:13:22;99783.94;;;3.13;84.71
64683;BME280;51107;47.652;19.016;2023-02-01T04:15:50;99792.06;;;3.06;84.73
64683;BME280;51107;47.652;19.016;2023-02-01T04:18:19;99790.31;;;3.20;84.36
64683;BME280;51107;47.652;19.016;2023-02-01T04:20:47;99784.12;;;3.10;84.88
64683;BME280;51107;47.652;19.016;2023-02-01T04:23:15;99784.75;;;3.13;84.64
64683;BME280;51107;47.652;19.016;2023-02-01T04:25:44;99793.28;;;3.14;84.67
64683;BME280;51107;47.652;19.016;2023-02-01T04:28:12;99799.25;;;3.01;85.78
64683;BME280;51107;47.652;19.016;2023-02-01T04:30:40;99803.97;;;2.95;85.61
64683;BME280;51107;47.652;19.016;2023-02-01T04:33:09;99797.91;;;2.96;86.24
64683;BME280;51107;47.652;19.016;2023-02-01T04:35:37;99805.44;;;2.99;85.57
64683;BME280;51107;47.652;19.016;2023-02-01T04:38:05;99810.72;;;3.10;84.42
64683;BME280;51107;47.652;19.016;2023-02-01T04:40:35;99810.41;;;3.15;84.05
64683;BME280;51107;47.652;19.016;2023-02-01T04:43:05;99805.31;;;2.87;85.85
64683;BME280;51107;47.652;19.016;2023-02-01T04:45:33;99806.09;;;3.28;82.90
64683;BME280;51107;47.652;19.016;2023-02-01T04:48:02;99804.13;;;3.19;83.45
64683;BME280;51107;47.652;19.016;2023-02-01T04:50:30;99807.22;;;3.24;83.12
64683;BME280;51107;47.652;19.016;2023-02-01T04:52:58;99822.25;;;3.17;83.48
64683;BME280;51107;47.652;19.016;2023-02-01T04:55:27;99814.94;;;3.24;82.85
64683;BME280;51107;47.652;19.016;2023-02-01T04:57:55;99812.69;;;3.32;82.31
64683;BME280;51107;47.652;19.016;2023-02-01T05:00:24;99822.88;;;3.34;82.21
64683;BME280;51107;47.652;19.016;2023-02-01T05:02:53;99818.56;;;3.47;81.26
64683;BME280;51107;47.652;19.016;2023-02-01T05:05:21;99816.06;;;3.46;81.80
64683;BME280;51107;47.652;19.016;2023-02-01T05:07:49;99838.09;;;3.37;82.51
64683;BME280;51107;47.652;19.016;2023-02-01T05:10:18;99831.00;;;3.40;81.92
64683;BME280;51107;47.652;19.016;2023-02-01T05:12:46;99835.03;;;3.45;80.77
64683;BME280;51107;47.652;19.016;2023-02-01T05:15:33;99835.53;;;3.50;79.47
64683;BME280;51107;47.652;19.016;2023-02-01T05:18:01;99837.59;;;3.57;79.44
64683;BME280;51107;47.652;19.016;2023-02-01T05:20:30;99838.19;;;3.74;77.61
64683;BME280;51107;47.652;19.016;2023-02-01T05:22:58;99848.59;;;3.72;77.46
64683;BME280;51107;47.652;19.016;2023-02-01T05:25:26;99830.88;;;3.81;76.33
64683;BME280;51107;47.652;19.016;2023-02-01T05:27:55;99834.06;;;3.84;76.03
64683;BME280;51107;47.652;19.016;2023-02-01T05:30:23;99839.41;;;3.94;75.86
64683;BME280;51107;47.652;19.016;2023-02-01T05:32:52;99824.34;;;3.88;76.55
64683;BME280;51107;47.652;19.016;2023-02-01T05:35:20;99835.59;;;4.00;76.01
64683;BME280;51107;47.652;19.016;2023-02-01T05:37:49;99827.84;;;4.00;76.45
64683;BME280;51107;47.652;19.016;2023-02-01T05:40:18;99836.66;;;3.84;77.69
64683;BME280;51107;47.652;19.016;2023-02-01T05:42:46;99826.31;;;3.97;77.20
64683;BME280;51107;47.652;19.016;2023-02-01T05:45:14;99814.44;;;3.95;77.47
64683;BME280;51107;47.652;19.016;2023-02-01T05:47:42;99827.66;;;3.90;77.60
64683;BME280;51107;47.652;19.016;2023-02-01T05:50:11;99836.94;;;3.80;78.62
64683;BME280;51107;47.652;19.016;2023-02-01T05:52:39;99837.97;;;3.77;78.87
64683;BME280;51107;47.652;19.016;2023-02-01T05:55:07;99846.66;;;3.76;79.38
64683;BME280;51107;47.652;19.016;2023-02-01T05:57:36;99844.28;;;3.73;79.62
64683;BME280;51107;47.652;19.016;2023-02-01T06:00:05;99839.44;;;3.68;80.00
64683;BME280;51107;47.652;19.016;2023-02-01T06:02:39;99834.06;;;3.71;79.87
64683;BME280;51107;47.652;19.016;2023-02-01T06:05:08;99831.41;;;3.60;80.85
64683;BME280;51107;47.652;19.016;2023-02-01T06:07:36;99843.47;;;3.47;81.66
64683;BME280;51107;47.652;19.016;2023-02-01T06:10:04;99845.00;;;3.49;81.54
64683;BME280;51107;47.652;19.016;2023-02-01T06:12:33;99862.53;;;3.31;82.54
64683;BME280;51107;47.652;19.016;2023-02-01T06:15:01;99860.66;;;3.20;83.45
64683;BME280;51107;47.652;19.016;2023-02-01T06:17:29;99865.19;;;3.43;82.57
64683;BME280;51107;47.652;19.016;2023-02-01T06:19:58;99871.91;;;3.32;82.77
64683;BME280;51107;47.652;19.016;2023-02-01T06:22:26;99866.72;;;3.19;84.03
64683;BME280;51107;47.652;19.016;2023-02-01T06:24:54;99875.06;;;3.23;83.58
64683;BME280;51107;47.652;19.016;2023-02-01T06:27:23;99870.56;;;3.39;82.97
64683;BME280;51107;47.652;19.016;2023-02-01T06:29:51;99865.09;;;3.31;83.08
64683;BME280;51107;47.652;19.016;2023-02-01T06:32:19;99872.94;;;3.43;82.64
64683;BME280;51107;47.652;19.016;2023-02-01T06:34:48;99889.53;;;3.51;82.65
64683;BME280;51107;47.652;19.016;2023-02-01T06:37:16;99884.16;;;3.54;82.30
64683;BME280;51107;47.652;19.016;2023-02-01T06:39:44;99889.22;;;3.56;82.74
64683;BME280;51107;47.652;19.016;2023-02-01T06:42:14;99872.84;;;3.57;82.38
64683;BME280;51107;47.652;19.016;2023-02-01T06:44:42;99883.47;;;3.65;82.24
64683;BME280;51107;47.652;19.016;2023-02-01T06:47:10;99878.59;;;3.61;82.64
64683;BME280;51107;47.652;19.016;2023-02-01T06:49:39;99882.31;;;3.69;82.54
64683;BME280;51107;47.652;19.016;2023-02-01T06:52:08;99879.22;;;3.64;83.04
64683;BME280;51107;47.652;19.016;2023-02-01T06:54:36;99887.13;;;3.87;81.70
64683;BME280;51107;47.652;19.016;2023-02-01T06:57:05;99892.41;;;3.98;80.92
64683;BME280;51107;47.652;19.016;2023-02-01T06:59:33;99889.91;;;3.97;81.77
64683;BME280;51107;47.652;19.016;2023-02-01T07:02:02;99900.91;;;4.12;80.50
64683;BME280;51107;47.652;19.016;2023-02-01T07:04:31;99892.16;;;4.14;79.83
64683;BME280;51107;47.652;19.016;2023-02-01T07:06:59;99891.75;;;4.07;80.44
64683;BME280;51107;47.652;19.016;2023-02-01T07:09:27;99893.00;;;4.15;79.90
64683;BME280;51107;47.652;19.016;2023-02-01T07:11:56;99884.06;;;4.32;79.75
64683;BME280;51107;47.652;19.016;2023-02-01T07:14:25;99907.50;;;4.29;79.16
64683;BME280;51107;47.652;19.016;2023-02-01T07:16:53;99908.50;;;4.39;78.58
64683;BME280;51107;47.652;19.016;2023-02-01T07:19:21;99899.94;;;4.38;79.84
64683;BME280;51107;47.652;19.016;2023-02-01T07:21:50;99909.13;;;4.42;78.27
64683;BME280;51107;47.652;19.016;2023-02-01T07:24:18;99899.59;;;4.56;78.09
64683;BME280;51107;47.652;19.016;2023-02-01T07:26:46;99911.59;;;4.44;78.63
64683;BME280;51107;47.652;19.016;2023-02-01T07:29:16;99914.34;;;4.54;77.90
64683;BME280;51107;47.652;19.016;2023-02-01T07:31:44;99909.56;;;4.61;78.07
64683;BME280;51107;47.652;19.016;2023-02-01T07:34:13;99923.63;;;4.81;76.63
64683;BME280;51107;47.652;19.016;2023-02-01T07:36:41;99920.13;;;4.82;76.22
64683;BME280;51107;47.652;19.016;2023-02-01T07:39:09;99923.16;;;4.75;77.28
64683;BME280;51107;47.652;19.016;2023-02-01T07:41:38;99918.38;;;4.82;77.21
64683;BME280;51107;47.652;19.016;2023-02-01T07:44:06;99917.00;;;4.89;77.18
64683;BME280;51107;47.652;19.016;2023-02-01T07:46:35;99918.25;;;4.84;78.48
64683;BME280;51107;47.652;19.016;2023-02-01T07:49:04;99915.47;;;4.87;78.80
64683;BME280;51107;47.652;19.016;2023-02-01T07:51:32;99911.84;;;4.89;77.22
64683;BME280;51107;47.652;19.016;2023-02-01T07:54:01;99909.75;;;4.95;77.08
64683;BME280;51107;47.652;19.016;2023-02-01T07:56:30;99903.16;;;4.90;76.85
64683;BME280;51107;47.652;19.016;2023-02-01T07:58:58;99905.22;;;5.09;74.61
64683;BME280;51107;47.652;19.016;2023-02-01T08:01:28;99913.91;;;5.08;74.90
64683;BME280;51107;47.652;19.016;2023-02-01T08:04:00;99917.78;;;5.03;74.51
64683;BME280;51107;47.652;19.016;2023-02-01T08:06:32;99914.56;;;4.99;73.74
64683;BME280;51107;47.652;19.016;2023-02-01T08:09:01;99929.78;;;4.91;74.01
64683;BME280;51107;47.652;19.016;2023-02-01T08:11:30;99934.81;;;4.68;74.04
64683;BME280;51107;47.652;19.016;2023-02-01T08:13:58;99934.06;;;4.79;74.35
64683;BME280;51107;47.652;19.016;2023-02-01T08:16:27;99931.97;;;4.84;74.07
64683;BME280;51107;47.652;19.016;2023-02-01T08:18:56;99935.44;;;4.96;73.32
64683;BME280;51107;47.652;19.016;2023-02-01T08:21:26;99930.63;;;5.27;71.95
64683;BME280;51107;47.652;19.016;2023-02-01T08:24:05;99939.22;;;5.27;72.65
64683;BME280;51107;47.652;19.016;2023-02-01T08:26:34;99950.44;;;5.51;71.50
64683;BME280;51107;47.652;19.016;2023-02-01T08:29:04;99967.50;;;5.65;70.75
64683;BME280;51107;47.652;19.016;2023-02-01T08:31:33;99955.78;;;5.72;69.95
64683;BME280;51107;47.652;19.016;2023-02-01T08:34:02;99961.66;;;5.74;70.29
64683;BME280;51107;47.652;19.016;2023-02-01T08:36:36;99954.38;;;5.79;69.51
64683;BME280;51107;47.652;19.016;2023-02-01T08:39:06;99954.25;;;5.81;69.48
64683;BME280;51107;47.652;19.016;2023-02-01T08:41:37;99957.28;;;6.21;67.53
64683;BME280;51107;47.652;19.016;2023-02-01T08:44:06;99945.72;;;6.37;68.17
64683;BME280;51107;47.652;19.016;2023-02-01T08:46:34;99948.88;;;6.63;66.29
64683;BME280;51107;47.652;19.016;2023-02-01T08:49:03;99944.00;;;6.81;66.53
64683;BME280;51107;47.652;19.016;2023-02-01T08:51:31;99945.03;;;6.90;65.80
64683;BME280;51107;47.652;19.016;2023-02-01T08:53:59;99949.69;;;7.28;64.09
64683;BME280;51107;47.652;19.016;2023-02-01T08:56:29;99941.50;;;7.23;64.48
64683;BME280;51107;47.652;19.016;2023-02-01T08:58:57;99936.31;;;7.65;63.48
64683;BME280;51107;47.652;19.016;2023-02-01T09:01:25;99933.94;;;7.83;63.09
64683;BME280;51107;47.652;19.016;2023-02-01T09:03:54;99914.16;;;8.13;61.65
64683;BME280;51107;47.652;19.016;2023-02-01T09:06:22;99928.62;;;8.16;60.32
64683;BME280;51107;47.652;19.016;2023-02-01T09:08:50;99915.63;;;8.06;60.37
64683;BME280;51107;47.652;19.016;2023-02-01T09:11:19;99923.25;;;7.98;60.31
64683;BME280;51107;47.652;19.016;2023-02-01T09:13:48;99934.69;;;7.95;62.13
64683;BME280;51107;47.652;19.016;2023-02-01T09:16:16;99930.69;;;7.81;60.83
64683;BME280;51107;47.652;19.016;2023-02-01T09:18:45;99921.34;;;7.48;62.05
64683;BME280;51107;47.652;19.016;2023-02-01T09:21:33;99942.63;;;7.30;63.97
64683;BME280;51107;47.652;19.016;2023-02-01T09:24:02;99949.84;;;7.27;63.75
64683;BME280;51107;47.652;19.016;2023-02-01T09:26:32;99954.72;;;6.76;66.42
64683;BME280;51107;47.652;19.016;2023-02-01T09:29:00;99951.94;;;6.68;67.68
64683;BME280;51107;47.652;19.016;2023-02-01T09:31:30;99964.66;;;6.37;70.70
64683;BME280;51107;47.652;19.016;2023-02-01T09:33:59;99951.72;;;6.37;71.95
64683;BME280;51107;47.652;19.016;2023-02-01T09:36:27;99957.00;;;6.36;73.06
64683;BME280;51107;47.652;19.016;2023-02-01T09:38:59;99958.44;;;6.17;75.05
64683;BME280;51107;47.652;19.016;2023-02-01T09:44:37;99960.53;;;6.57;72.83
64683;BME280;51107;47.652;19.016;2023-02-01T09:47:13;99960.72;;;6.77;71.65
64683;BME280;51107;47.652;19.016;2023-02-01T09:52:17;99954.72;;;7.09;70.71
64683;BME280;51107;47.652;19.016;2023-02-01T09:54:55;99945.09;;;7.11;70.46
64683;BME280;51107;47.652;19.016;2023-02-01T09:57:40;99946.81;;;7.43;nan
64683;BME280;51107;47.652;19.016;2023-02-01T10:00:22;99924.31;;;7.43;68.26
64683;BME280;51107;47.652;19.016;2023-02-01T10:02:55;99937.66;;;8.22;66.07
64683;BME280;51107;47.652;19.016;2023-02-01T10:08:24;99934.84;;;8.75;63.64
64683;BME280;51107;47.652;19.016;2023-02-01T10:10:57;99933.81;;;8.47;64.05
64683;BME280;51107;47.652;19.016;2023-02-01T10:13:58;99930.66;;;8.43;65.16
64683;BME280;51107;47.652;19.016;2023-02-01T10:22:25;99899.69;;;7.59;66.61
64683;BME280;51107;47.652;19.016;2023-02-01T10:28:00;99894.47;;;8.11;65.13
64683;BME280;51107;47.652;19.016;2023-02-01T10:30:37;99905.16;;;8.58;64.89
64683;BME280;51107;47.652;19.016;2023-02-01T10:33:25;99888.59;;;8.49;63.54
64683;BME280;51107;47.652;19.016;2023-02-01T10:36:35;99907.47;;;8.52;63.48
64683;BME280;51107;47.652;19.016;2023-02-01T10:38:53;99895.41;;;8.10;64.32
64683;BME280;51107;47.652;19.016;2023-02-01T10:41:22;99891.78;;;8.22;66.13
64683;BME280;51107;47.652;19.016;2023-02-01T10:43:55;99895.16;;;8.73;64.65
64683;BME280;51107;47.652;19.016;2023-02-01T10:46:25;99883.91;;;8.43;65.43
64683;BME280;51107;47.652;19.016;2023-02-01T10:48:55;99871.59;;;8.36;65.75
64683;BME280;51107;47.652;19.016;2023-02-01T10:51:34;99846.56;;;8.25;65.60
64683;BME280;51107;47.652;19.016;2023-02-01T10:54:17;99841.22;;;8.16;67.27
64683;BME280;51107;47.652;19.016;2023-02-01T10:56:49;99851.78;;;7.84;66.49
64683;BME280;51107;47.652;19.016;2023-02-01T10:59:24;99838.00;;;7.53;68.21
64683;BME280;51107;47.652;19.016;2023-02-01T11:02:02;99832.34;;;7.17;68.68
64683;BME280;51107;47.652;19.016;2023-02-01T11:04:34;99850.38;;;7.18;68.48
64683;BME280;51107;47.652;19.016;2023-02-01T11:07:19;99852.25;;;6.62;71.24
64683;BME280;51107;47.652;19.016;2023-02-01T11:09:52;99842.41;;;6.56;71.14
64683;BME280;51107;47.652;19.016;2023-02-01T11:12:32;99853.75;;;6.33;72.73
64683;BME280;51107;47.652;19.016;2023-02-01T11:17:43;99842.91;;;6.39;73.16
64683;BME280;51107;47.652;19.016;2023-02-01T11:20:17;99832.59;;;6.27;75.42
64683;BME280;51107;47.652;19.016;2023-02-01T11:22:56;99836.28;;;6.14;74.49
64683;BME280;51107;47.652;19.016;2023-02-01T11:25:25;99835.06;;;5.95;76.36
64683;BME280;51107;47.652;19.016;2023-02-01T11:27:55;99826.31;;;5.64;78.41
64683;BME280;51107;47.652;19.016;2023-02-01T11:30:36;99829.94;;;5.61;79.33
64683;BME280;51107;47.652;19.016;2023-02-01T11:33:12;99828.06;;;5.74;82.41
64683;BME280;51107;47.652;19.016;2023-02-01T11:35:41;99828.75;;;5.65;82.75
64683;BME280;51107;47.652;19.016;2023-02-01T11:38:25;99829.91;;;5.38;85.50
64683;BME280;51107;47.652;19.016;2023-02-01T11:40:54;99830.38;;;5.21;88.84
64683;BME280;51107;47.652;19.016;2023-02-01T11:43:28;99819.56;;;5.27;89.78
64683;BME280;51107;47.652;19.016;2023-02-01T11:48:27;99812.38;;;4.72;96.45
64683;BME280;51107;47.652;19.016;2023-02-01T11:55:24;99794.47;;;4.47;100.00
64683;BME280;51107;47.652;19.016;2023-02-01T12:11:50;99777.44;;;3.96;100.00
64683;BME280;51107;47.652;19.016;2023-02-01T12:21:04;99772.00;;;3.87;100.00
64683;BME280;51107;47.652;19.016;2023-02-01T12:46:16;99765.31;;;2.96;100.00
64683;BME280;51107;47.652;19.016;2023-02-01T12:49:08;99747.16;;;2.85;100.00
64683;BME280;51107;47.652;19.016;2023-02-01T12:51:40;99756.94;;;2.93;100.00
64683;BME280;51107;47.652;19.016;2023-02-01T12:56:47;99749.13;;;2.94;100.00
64683;BME280;51107;47.652;19.016;2023-02-01T12:59:42;99735.88;;;3.00;100.00
64683;BME280;51107;47.652;19.016;2023-02-01T13:05:19;99715.47;;;3.10;100.00
64683;BME280;51107;47.652;19.016;2023-02-01T13:07:53;99709.91;;;3.16;100.00
64683;BME280;51107;47.652;19.016;2023-02-01T13:16:20;99700.31;;;3.68;100.00
64683;BME280;51107;47.652;19.016;2023-02-01T13:18:59;99701.44;;;4.01;100.00
64683;BME280;51107;47.652;19.016;2023-02-01T13:21:34;99698.81;;;3.90;100.00
64683;BME280;51107;47.652;19.016;2023-02-01T13:27:01;99676.16;;;4.06;100.00
64683;BME280;51107;47.652;19.016;2023-02-01T13:29:31;99675.00;;;4.11;100.00
64683;BME280;51107;47.652;19.016;2023-02-01T13:37:19;99685.34;;;3.98;100.00
64683;BME280;51107;47.652;19.016;2023-02-01T13:45:36;99707.25;;;3.92;100.00
64683;BME280;51107;47.652;19.016;2023-02-01T13:48:18;99700.81;;;3.98;100.00
64683;BME280;51107;47.652;19.016;2023-02-01T13:50:52;99691.72;;;4.05;100.00
64683;BME280;51107;47.652;19.016;2023-02-01T13:53:46;99697.50;;;4.20;100.00
64683;BME280;51107;47.652;19.016;2023-02-01T13:56:22;99658.13;;;4.53;100.00
64683;BME280;51107;47.652;19.016;2023-02-01T13:58:52;99656.13;;;4.57;100.00
64683;BME280;51107;47.652;19.016;2023-02-01T14:03:52;99698.50;;;4.77;100.00
64683;BME280;51107;47.652;19.016;2023-02-01T14:09:30;99764.72;;;4.54;100.00
64683;BME280;51107;47.652;19.016;2023-02-01T14:15:22;99775.41;;;3.88;100.00
64683;BME280;51107;47.652;19.016;2023-02-01T14:17:51;99763.63;;;3.60;100.00
64683;BME280;51107;47.652;19.016;2023-02-01T14:20:50;99757.03;;;3.43;100.00
64683;BME280;51107;47.652;19.016;2023-02-01T14:23:21;99746.50;;;3.46;100.00
64683;BME280;51107;47.652;19.016;2023-02-01T14:26:03;99751.66;;;3.46;100.00
64683;BME280;51107;47.652;19.016;2023-02-01T14:28:35;99752.72;;;3.43;100.00
64683;BME280;51107;47.652;19.016;2023-02-01T14:31:15;99743.47;;;3.40;100.00
64683;BME280;51107;47.652;19.016;2023-02-01T14:33:45;99749.13;;;3.20;100.00
64683;BME280;51107;47.652;19.016;2023-02-01T14:36:14;99741.09;;;3.12;100.00
64683;BME280;51107;47.652;19.016;2023-02-01T14:38:49;99734.69;;;3.30;100.00
64683;BME280;51107;47.652;19.016;2023-02-01T14:41:44;99729.91;;;3.13;100.00
64683;BME280;51107;47.652;19.016;2023-02-01T14:44:23;99738.44;;;3.13;100.00
64683;BME280;51107;47.652;19.016;2023-02-01T14:50:00;99735.13;;;3.24;100.00
64683;BME280;51107;47.652;19.016;2023-02-01T14:52:40;99730.69;;;3.26;100.00
64683;BME280;51107;47.652;19.016;2023-02-01T14:55:20;99736.03;;;3.49;100.00
64683;BME280;51107;47.652;19.016;2023-02-01T14:57:53;99731.66;;;3.62;100.00
64683;BME280;51107;47.652;19.016;2023-02-01T15:00:29;99731.66;;;3.62;100.00
64683;BME280;51107;47.652;19.016;2023-02-01T15:05:55;99737.75;;;3.48;100.00
64683;BME280;51107;47.652;19.016;2023-02-01T15:08:31;99732.50;;;3.50;100.00
64683;BME280;51107;47.652;19.016;2023-02-01T15:11:06;99729.84;;;3.51;100.00
64683;BME280;51107;47.652;19.016;2023-02-01T15:13:36;99718.19;;;3.46;100.00
64683;BME280;51107;47.652;19.016;2023-02-01T15:16:15;99704.94;;;3.39;100.00
64683;BME280;51107;47.652;19.016;2023-02-01T15:18:45;99714.19;;;3.42;100.00
64683;BME280;51107;47.652;19.016;2023-02-01T15:21:23;99705.63;;;3.41;100.00
64683;BME280;51107;47.652;19.016;2023-02-01T15:24:25;99696.44;;;3.50;100.00
64683;BME280;51107;47.652;19.016;2023-02-01T15:26:54;99704.16;;;3.50;100.00
64683;BME280;51107;47.652;19.016;2023-02-01T15:29:24;99709.81;;;3.55;100.00
64683;BME280;51107;47.652;19.016;2023-02-01T15:32:00;99724.88;;;3.48;100.00
64683;BME280;51107;47.652;19.016;2023-02-01T15:34:49;99726.72;;;3.59;100.00
64683;BME280;51107;47.652;19.016;2023-02-01T15:37:20;99718.69;;;3.64;100.00
64683;BME280;51107;47.652;19.016;2023-02-01T15:42:57;99708.28;;;3.52;100.00
64683;BME280;51107;47.652;19.016;2023-02-01T15:45:28;99719.94;;;3.45;100.00
64683;BME280;51107;47.652;19.016;2023-02-01T15:47:58;99724.47;;;3.42;100.00